Time;durP1;ratioP1;P1;durP2;ratioP2;P2;SDS_P1;SDS_P2;PMS_P1;PMS_P2;Temp;Humidity;BMP_temperature;BMP_pressure;BME280_temperature;BME280_humidity;BME280_pressure;Samples;Min_cycle;Max_cycle;Signal;HPM_P1;HPM_P2
2023/11/23 00:01:10;;;;;;;13.73;6.00;;;9.00;99.90;;;;;;5009118;28;20451;-62
2023/11/23 00:03:36;;;;;;;13.85;6.07;;;9.10;99.90;;;;;;5025996;28;20067;-62
2023/11/23 00:06:02;;;;;;;13.50;5.50;;;9.10;99.90;;;;;;5028041;28;20095;-62
2023/11/23 00:08:27;;;;;;;9.57;5.72;;;9.10;99.90;;;;;;5025695;28;20049;-62
2023/11/23 00:10:54;;;;;;;15.35;6.53;;;9.10;99.90;;;;;;5001813;28;20042;-62
2023/11/23 00:13:19;;;;;;;12.10;5.82;;;9.20;99.90;;;;;;5010943;28;20154;-62
2023/11/23 00:15:45;;;;;;;10.90;5.32;;;9.20;99.90;;;;;;5026012;28;20503;-62
2023/11/23 00:18:13;;;;;;;13.32;6.45;;;9.20;99.90;;;;;;5027690;28;20053;-62
2023/11/23 00:20:39;;;;;;;10.68;4.75;;;9.20;99.90;;;;;;5006350;28;20045;-62
2023/11/23 00:23:05;;;;;;;15.27;6.15;;;9.20;99.90;;;;;;5004782;28;20055;-62
2023/11/23 00:25:30;;;;;;;17.40;6.53;;;9.20;99.90;;;;;;5025400;28;20772;-62
2023/11/23 00:27:56;;;;;;;20.58;6.65;;;9.30;99.90;;;;;;5026746;28;20052;-62
2023/11/23 00:30:22;;;;;;;15.95;6.55;;;9.20;99.90;;;;;;4992271;28;20041;-62
2023/11/23 00:32:48;;;;;;;11.90;5.13;;;9.30;99.90;;;;;;5003997;28;20053;-62
2023/11/23 00:35:13;;;;;;;10.75;5.68;;;9.30;99.90;;;;;;5009260;28;20045;-62
2023/11/23 00:37:39;;;;;;;11.13;5.18;;;9.30;99.90;;;;;;5001872;28;20068;-62
2023/11/23 00:40:05;;;;;;;14.50;5.38;;;9.40;99.90;;;;;;5026080;28;20056;-62
2023/11/23 00:42:31;;;;;;;14.20;4.13;;;9.40;99.90;;;;;;5024778;28;20128;-62
2023/11/23 00:44:57;;;;;;;12.10;4.25;;;9.40;99.90;;;;;;5027850;28;20179;-62
2023/11/23 00:47:22;;;;;;;10.93;4.40;;;9.40;99.90;;;;;;5024510;28;20061;-62
2023/11/23 00:49:48;;;;;;;11.95;4.93;;;9.40;99.90;;;;;;5027741;28;20041;-63
2023/11/23 00:52:15;;;;;;;12.50;5.55;;;9.40;99.90;;;;;;5026547;28;20133;-62
2023/11/23 00:54:41;;;;;;;8.68;3.70;;;9.50;99.90;;;;;;5025404;28;20073;-62
2023/11/23 00:57:06;;;;;;;11.63;4.57;;;9.60;99.90;;;;;;4987729;28;20264;-62
2023/11/23 00:59:33;;;;;;;9.88;4.35;;;9.50;99.90;;;;;;5021652;28;20040;-62
2023/11/23 01:02:01;;;;;;;6.60;3.17;;;9.60;99.90;;;;;;5007235;28;20048;-63
2023/11/23 01:04:27;;;;;;;11.88;4.28;;;9.70;99.90;;;;;;5005479;28;20633;-62
2023/11/23 01:06:54;;;;;;;8.13;3.08;;;9.70;99.90;;;;;;5025810;28;20129;-63
2023/11/23 01:09:20;;;;;;;9.27;3.65;;;9.60;99.90;;;;;;5017005;28;20045;-62
2023/11/23 01:11:46;;;;;;;7.80;3.10;;;9.70;99.90;;;;;;5007518;28;20041;-63
2023/11/23 01:14:12;;;;;;;7.40;2.25;;;9.80;99.90;;;;;;5009277;28;20052;-63
2023/11/23 01:16:38;;;;;;;6.32;2.95;;;9.90;99.90;;;;;;5025073;28;20128;-62
2023/11/23 01:19:04;;;;;;;8.93;2.35;;;9.80;99.90;;;;;;5008178;28;20411;-62
2023/11/23 01:21:30;;;;;;;9.07;3.30;;;9.90;99.90;;;;;;5024530;28;20050;-62
2023/11/23 01:23:55;;;;;;;6.38;2.78;;;10.00;99.90;;;;;;5008289;28;20045;-63
2023/11/23 01:26:21;;;;;;;5.95;2.00;;;10.00;99.90;;;;;;5025767;28;20045;-62
2023/11/23 01:28:47;;;;;;;12.30;2.65;;;10.00;99.90;;;;;;5026251;28;20511;-63
2023/11/23 01:31:13;;;;;;;7.40;2.30;;;10.00;99.90;;;;;;5024630;28;20396;-63
2023/11/23 01:33:38;;;;;;;5.38;1.92;;;10.10;99.90;;;;;;5027384;28;20501;-63
2023/11/23 01:36:04;;;;;;;6.95;1.80;;;10.10;99.90;;;;;;5011915;28;20056;-62
2023/11/23 01:38:30;;;;;;;10.43;2.35;;;10.20;99.90;;;;;;5028095;28;20462;-62
2023/11/23 01:40:56;;;;;;;12.68;1.98;;;10.10;99.90;;;;;;5029407;28;20103;-63
2023/11/23 01:43:22;;;;;;;14.73;2.13;;;10.20;99.90;;;;;;5028533;28;20071;-63
2023/11/23 01:45:47;;;;;;;4.50;1.45;;;10.20;99.90;;;;;;5031072;28;20064;-62
2023/11/23 01:48:14;;;;;;;4.63;1.25;;;10.30;99.90;;;;;;5011843;28;20041;-62
2023/11/23 01:50:42;;;;;;;0.88;0.85;;;10.20;99.90;;;;;;5027848;28;20124;-63
2023/11/23 01:53:08;;;;;;;8.13;1.67;;;10.30;99.90;;;;;;5029502;28;20525;-62
2023/11/23 01:55:34;;;;;;;3.17;0.82;;;10.40;99.90;;;;;;5028827;28;20124;-63
2023/11/23 01:58:04;;;;;;;10.60;2.00;;;10.30;99.90;;;;;;5012713;28;20491;-62
2023/11/23 02:00:30;;;;;;;7.03;1.27;;;10.40;99.90;;;;;;5028348;28;20057;-63
2023/11/23 02:02:56;;;;;;;3.00;0.35;;;10.40;99.90;;;;;;5029565;28;20092;-63
2023/11/23 02:05:23;;;;;;;3.17;0.82;;;10.50;99.90;;;;;;5027029;28;20057;-63
2023/11/23 02:07:49;;;;;;;7.43;1.90;;;10.50;99.90;;;;;;5029280;28;20084;-63
2023/11/23 02:10:15;;;;;;;0.55;0.40;;;10.60;99.90;;;;;;5020982;28;20061;-63
2023/11/23 02:12:42;;;;;;;10.25;1.23;;;10.60;99.90;;;;;;5026501;28;20041;-62
2023/11/23 02:15:09;;;;;;;2.42;0.68;;;10.60;99.90;;;;;;4995941;28;20049;-63
2023/11/23 02:17:34;;;;;;;2.33;1.40;;;10.70;99.90;;;;;;5026656;28;20049;-63
2023/11/23 02:20:00;;;;;;;2.75;0.85;;;10.80;99.90;;;;;;5009032;28;20049;-63
2023/11/23 02:22:28;;;;;;;5.18;0.80;;;10.80;99.90;;;;;;5005502;28;20132;-62
2023/11/23 02:24:54;;;;;;;5.50;0.57;;;10.80;99.90;;;;;;5010605;28;20073;-63
2023/11/23 02:27:20;;;;;;;1.67;0.63;;;10.90;99.90;;;;;;5029021;28;20555;-63
2023/11/23 02:29:45;;;;;;;2.97;1.33;;;10.90;99.90;;;;;;5027566;28;20387;-63
2023/11/23 02:32:11;;;;;;;4.32;1.40;;;11.00;99.90;;;;;;5029528;28;20069;-63
2023/11/23 02:34:38;;;;;;;1.10;0.70;;;11.00;99.90;;;;;;5027821;28;20072;-62
2023/11/23 02:37:04;;;;;;;4.45;1.10;;;11.00;99.90;;;;;;5029820;28;20434;-62
2023/11/23 02:39:31;;;;;;;0.55;0.35;;;11.10;99.90;;;;;;5026287;28;20145;-62
2023/11/23 02:41:59;;;;;;;6.40;0.60;;;11.10;99.90;;;;;;5028817;28;20050;-63
2023/11/23 02:44:25;;;;;;;2.63;0.57;;;11.10;99.90;;;;;;5027543;28;20042;-63
2023/11/23 02:46:51;;;;;;;3.40;1.08;;;11.10;99.90;;;;;;5026880;28;20060;-62
2023/11/23 02:49:20;;;;;;;3.35;0.47;;;11.20;99.90;;;;;;5010778;28;20076;-62
2023/11/23 02:51:46;;;;;;;2.85;0.63;;;11.20;99.90;;;;;;5024948;28;20109;-63
2023/11/23 02:54:13;;;;;;;1.98;0.45;;;11.20;99.90;;;;;;5028863;28;20131;-63
2023/11/23 02:56:39;;;;;;;3.45;0.82;;;11.20;99.90;;;;;;5027841;28;20041;-63
2023/11/23 02:59:04;;;;;;;1.20;0.73;;;11.20;99.90;;;;;;5029457;28;20045;-63
2023/11/23 03:01:33;;;;;;;2.55;0.35;;;11.20;99.90;;;;;;5028643;28;20057;-62
2023/11/23 03:03:59;;;;;;;3.75;0.63;;;11.20;99.90;;;;;;5024532;28;20081;-62
2023/11/23 03:06:26;;;;;;;3.75;1.30;;;11.10;99.90;;;;;;5028812;28;20503;-63
2023/11/23 03:08:55;;;;;;;6.60;1.70;;;11.10;99.90;;;;;;5009095;28;20144;-62
2023/11/23 03:11:24;;;;;;;13.38;2.28;;;11.20;99.90;;;;;;5029395;28;20507;-63
2023/11/23 03:13:51;;;;;;;1.60;0.77;;;11.10;99.90;;;;;;5015264;28;20096;-62
2023/11/23 03:16:17;;;;;;;8.50;1.30;;;11.10;99.90;;;;;;5028477;28;20041;-63
2023/11/23 03:18:43;;;;;;;1.38;0.60;;;11.00;99.90;;;;;;5027008;28;20404;-63
2023/11/23 03:21:09;;;;;;;2.03;0.45;;;11.00;99.90;;;;;;5027220;28;20029;-63
2023/11/23 03:23:35;;;;;;;9.57;2.70;;;10.90;99.90;;;;;;5005526;28;20054;-63
2023/11/23 03:26:01;;;;;;;4.30;1.00;;;10.90;99.90;;;;;;5023398;28;20128;-63
2023/11/23 03:28:27;;;;;;;1.98;0.55;;;10.90;99.90;;;;;;5028385;28;20460;-63
2023/11/23 03:30:53;;;;;;;5.57;1.30;;;10.80;99.90;;;;;;5009576;28;20120;-62
2023/11/23 03:33:19;;;;;;;2.22;0.60;;;10.80;99.90;;;;;;5010051;28;20045;-63
2023/11/23 03:35:45;;;;;;;7.25;1.75;;;10.80;99.90;;;;;;5021983;28;20379;-63
2023/11/23 03:38:11;;;;;;;1.08;0.63;;;10.70;99.90;;;;;;5027294;28;20033;-62
2023/11/23 03:40:37;;;;;;;2.72;0.45;;;10.70;99.90;;;;;;5009903;28;20435;-63
2023/11/23 03:43:03;;;;;;;4.65;1.10;;;10.70;99.90;;;;;;5026497;28;20038;-69
2023/11/23 03:45:29;;;;;;;1.55;0.55;;;10.70;99.90;;;;;;5024819;28;20045;-66
2023/11/23 03:47:56;;;;;;;5.38;0.68;;;10.70;99.90;;;;;;5026234;28;20057;-63
2023/11/23 03:50:24;;;;;;;4.75;0.98;;;10.70;99.90;;;;;;5028361;28;20037;-63
2023/11/23 03:52:50;;;;;;;1.63;0.40;;;10.60;99.90;;;;;;5026351;28;20133;-62
2023/11/23 03:55:16;;;;;;;4.47;0.85;;;10.70;99.90;;;;;;5023034;28;20053;-62
2023/11/23 03:57:43;;;;;;;3.35;0.73;;;10.70;99.90;;;;;;5018082;28;20049;-63
2023/11/23 04:00:10;;;;;;;0.15;0.08;;;10.60;99.90;;;;;;5026548;28;20049;-63
2023/11/23 04:02:36;;;;;;;2.13;0.30;;;10.70;99.90;;;;;;5027059;28;20867;-63
2023/11/23 04:05:02;;;;;;;2.47;0.60;;;10.70;99.90;;;;;;5025004;28;20049;-62
2023/11/23 04:07:27;;;;;;;0.95;0.70;;;10.60;99.90;;;;;;5007866;28;20098;-62
2023/11/23 04:09:53;;;;;;;1.85;0.35;;;10.70;99.90;;;;;;5026129;28;20044;-63
2023/11/23 04:12:19;;;;;;;0.52;0.30;;;10.70;99.90;;;;;;5027761;28;20418;-63
2023/11/23 04:14:44;;;;;;;2.65;0.80;;;10.70;99.90;;;;;;5008812;28;20198;-63
2023/11/23 04:17:10;;;;;;;5.78;1.55;;;10.70;99.90;;;;;;5018361;28;20065;-62
2023/11/23 04:19:36;;;;;;;1.77;0.80;;;10.70;99.90;;;;;;5007947;28;20503;-63
2023/11/23 04:22:03;;;;;;;0.40;0.40;;;10.70;99.90;;;;;;4991807;28;20419;-63
2023/11/23 04:24:28;;;;;;;8.05;1.45;;;10.70;99.90;;;;;;5026667;28;20041;-62
2023/11/23 04:26:54;;;;;;;2.35;0.50;;;10.70;99.90;;;;;;5006275;28;20510;-64
2023/11/23 04:29:20;;;;;;;1.10;0.43;;;10.70;99.90;;;;;;5022859;28;20049;-64
2023/11/23 04:31:46;;;;;;;3.40;0.50;;;10.70;99.90;;;;;;5007999;28;20350;-62
2023/11/23 04:34:12;;;;;;;2.95;0.70;;;10.60;99.90;;;;;;5025912;28;20030;-63
2023/11/23 04:36:37;;;;;;;3.00;0.40;;;10.70;99.90;;;;;;5008462;28;20502;-62
2023/11/23 04:39:04;;;;;;;3.50;0.95;;;10.60;99.90;;;;;;5025058;28;20073;-62
2023/11/23 04:41:29;;;;;;;2.47;0.85;;;10.60;99.90;;;;;;5027221;28;20458;-63
2023/11/23 04:43:55;;;;;;;0.13;0.13;;;10.60;99.90;;;;;;5025726;28;20045;-63
2023/11/23 04:46:21;;;;;;;0.28;0.28;;;10.60;99.90;;;;;;5027564;28;20045;-63
2023/11/23 04:48:50;;;;;;;3.83;0.73;;;10.70;99.90;;;;;;5024689;28;20037;-62
2023/11/23 04:51:16;;;;;;;0.70;0.60;;;10.60;99.90;;;;;;5026788;28;20103;-63
2023/11/23 04:53:42;;;;;;;3.15;0.80;;;10.60;99.90;;;;;;5026148;28;20037;-63
2023/11/23 04:56:08;;;;;;;3.15;0.93;;;10.70;99.90;;;;;;5007489;28;20424;-63
2023/11/23 04:58:34;;;;;;;1.17;0.40;;;10.60;99.90;;;;;;5009468;28;20041;-63
2023/11/23 05:01:03;;;;;;;4.47;0.52;;;10.60;99.90;;;;;;5024448;28;20053;-62
2023/11/23 05:03:29;;;;;;;3.00;0.30;;;10.60;99.90;;;;;;5023404;28;20045;-63
2023/11/23 05:05:55;;;;;;;1.25;0.55;;;10.60;99.90;;;;;;5025092;28;20053;-62
2023/11/23 05:08:21;;;;;;;6.20;1.23;;;10.60;99.90;;;;;;5030874;28;20133;-62
2023/11/23 05:10:47;;;;;;;6.68;0.50;;;10.60;99.90;;;;;;5012506;28;20128;-62
2023/11/23 05:13:13;;;;;;;2.00;0.65;;;10.50;99.90;;;;;;5030023;28;20053;-63
2023/11/23 05:15:40;;;;;;;6.43;1.50;;;10.50;99.90;;;;;;5030836;28;20490;-63
2023/11/23 05:18:05;;;;;;;3.83;1.00;;;10.50;99.90;;;;;;5028899;28;20037;-62
2023/11/23 05:20:32;;;;;;;0.52;0.43;;;10.60;99.90;;;;;;5029950;28;20052;-63
2023/11/23 05:22:58;;;;;;;12.23;1.17;;;10.60;99.90;;;;;;5027172;28;20049;-63
2023/11/23 05:25:24;;;;;;;4.95;0.52;;;10.60;99.90;;;;;;5031185;28;20037;-63
2023/11/23 05:27:50;;;;;;;9.85;0.93;;;10.50;99.90;;;;;;5029808;28;20046;-63
2023/11/23 05:30:17;;;;;;;3.30;0.65;;;10.50;99.90;;;;;;5012551;28;20042;-63
2023/11/23 05:32:43;;;;;;;2.72;0.77;;;10.50;99.90;;;;;;5012411;28;20107;-62
2023/11/23 05:35:09;;;;;;;3.42;0.73;;;10.50;99.90;;;;;;5029508;28;20049;-62
2023/11/23 05:37:34;;;;;;;3.47;0.85;;;10.50;99.90;;;;;;5031222;28;20694;-63
2023/11/23 05:40:00;;;;;;;10.35;1.23;;;10.50;99.90;;;;;;5028678;28;20103;-62
2023/11/23 05:42:30;;;;;;;5.68;1.23;;;10.50;99.90;;;;;;5029974;28;20046;-63
2023/11/23 05:44:56;;;;;;;1.15;0.65;;;10.50;99.90;;;;;;5028502;28;20046;-63
2023/11/23 05:47:21;;;;;;;2.72;0.68;;;10.50;99.90;;;;;;5012151;28;20418;-63
2023/11/23 05:49:47;;;;;;;3.58;0.98;;;10.40;99.90;;;;;;5012922;28;20084;-62
2023/11/23 05:52:13;;;;;;;3.53;1.10;;;10.40;99.90;;;;;;5028416;28;20407;-62
2023/11/23 05:54:38;;;;;;;5.30;1.02;;;10.40;99.90;;;;;;5027558;28;20088;-62
2023/11/23 05:57:04;;;;;;;10.45;0.95;;;10.40;99.90;;;;;;5009631;28;20052;-63
2023/11/23 05:59:30;;;;;;;10.25;1.88;;;10.30;99.90;;;;;;5012120;28;20049;-63
2023/11/23 06:01:56;;;;;;;1.55;0.68;;;10.30;99.90;;;;;;5009687;28;20083;-62
2023/11/23 06:04:22;;;;;;;12.55;1.30;;;10.40;99.90;;;;;;5028783;28;20077;-63
2023/11/23 06:06:47;;;;;;;5.57;1.05;;;10.40;99.90;;;;;;5006617;28;20049;-63
2023/11/23 06:09:13;;;;;;;1.33;0.55;;;10.40;99.90;;;;;;5028447;28;20040;-63
2023/11/23 06:11:39;;;;;;;7.72;1.40;;;10.40;99.90;;;;;;5029709;28;20487;-67
2023/11/23 06:14:05;;;;;;;12.88;1.35;;;10.40;99.90;;;;;;5009932;28;20475;-64
2023/11/23 06:16:31;;;;;;;2.47;0.32;;;10.50;99.90;;;;;;5027935;28;20045;-63
2023/11/23 06:18:57;;;;;;;2.47;0.82;;;10.50;99.90;;;;;;5027689;28;20483;-63
2023/11/23 06:21:22;;;;;;;1.65;0.60;;;10.60;99.90;;;;;;5029536;28;20431;-63
2023/11/23 06:23:48;;;;;;;15.40;1.92;;;10.60;99.90;;;;;;5010734;28;20045;-62
2023/11/23 06:26:20;;;;;;;5.35;1.50;;;10.60;99.90;;;;;;5006728;28;20041;-62
2023/11/23 06:28:46;;;;;;;3.35;0.60;;;10.60;99.90;;;;;;5030544;28;20049;-62
2023/11/23 06:31:12;;;;;;;5.22;1.48;;;10.70;99.90;;;;;;5027038;28;20060;-63
2023/11/23 06:33:38;;;;;;;9.52;1.30;;;10.70;99.90;;;;;;5029182;28;20045;-62
2023/11/23 06:36:03;;;;;;;8.50;1.10;;;10.70;99.90;;;;;;5008900;28;20090;-62
2023/11/23 06:38:29;;;;;;;0.52;0.25;;;10.70;99.90;;;;;;5029628;28;20065;-63
2023/11/23 06:40:56;;;;;;;2.85;0.63;;;10.70;99.90;;;;;;5027139;28;20438;-63
2023/11/23 06:43:22;;;;;;;8.75;1.00;;;10.70;99.90;;;;;;5028320;28;20391;-63
2023/11/23 06:45:48;;;;;;;2.42;0.55;;;10.70;99.90;;;;;;5030161;28;20125;-63
2023/11/23 06:48:14;;;;;;;1.77;0.68;;;10.80;99.90;;;;;;5025889;28;20487;-63
2023/11/23 06:50:40;;;;;;;5.45;1.23;;;10.70;99.90;;;;;;5026728;28;20084;-63
2023/11/23 06:53:05;;;;;;;3.05;0.70;;;10.70;99.90;;;;;;5023738;28;20099;-63
2023/11/23 06:55:31;;;;;;;0.70;0.25;;;10.70;99.90;;;;;;4976240;28;20034;-63
2023/11/23 06:57:57;;;;;;;0.93;0.45;;;10.70;99.90;;;;;;5020651;28;20527;-62
2023/11/23 07:00:22;;;;;;;9.00;1.25;;;10.70;99.90;;;;;;5027790;28;20053;-64
2023/11/23 07:02:50;;;;;;;2.47;0.60;;;10.70;99.90;;;;;;5011519;28;20492;-62
2023/11/23 07:05:18;;;;;;;3.63;0.57;;;10.70;99.90;;;;;;5027515;28;20507;-63
2023/11/23 07:07:45;;;;;;;5.25;0.70;;;10.70;99.90;;;;;;5028373;28;20084;-62
2023/11/23 07:10:12;;;;;;;2.33;0.73;;;10.70;99.90;;;;;;5022493;28;20046;-62
2023/11/23 07:12:39;;;;;;;4.85;0.90;;;10.70;99.90;;;;;;5028865;28;20045;-62
2023/11/23 07:15:06;;;;;;;5.97;1.40;;;10.70;99.90;;;;;;5025745;28;20075;-62
2023/11/23 07:17:32;;;;;;;3.60;0.85;;;10.70;99.90;;;;;;5028865;28;20037;-62
2023/11/23 07:19:57;;;;;;;8.25;1.35;;;10.80;99.90;;;;;;5008202;28;20487;-62
2023/11/23 07:22:23;;;;;;;1.10;0.50;;;10.80;99.90;;;;;;5009071;28;20037;-63
2023/11/23 07:24:49;;;;;;;5.40;0.73;;;10.80;99.90;;;;;;5009589;28;20049;-62
2023/11/23 07:27:16;;;;;;;7.03;0.95;;;10.90;99.90;;;;;;5025026;28;20499;-62
2023/11/23 07:29:42;;;;;;;1.25;0.60;;;10.90;99.90;;;;;;5028155;28;20045;-62
2023/11/23 07:32:11;;;;;;;2.30;0.82;;;10.90;99.90;;;;;;5025749;28;20045;-62
2023/11/23 07:34:37;;;;;;;2.65;0.30;;;11.00;99.90;;;;;;5023808;28;20065;-63
2023/11/23 07:37:03;;;;;;;2.20;0.77;;;11.00;99.90;;;;;;5008970;28;20058;-62
2023/11/23 07:39:29;;;;;;;6.53;1.17;;;10.90;99.90;;;;;;5026965;28;20053;-62
2023/11/23 07:41:55;;;;;;;6.68;1.13;;;10.90;99.90;;;;;;5019124;28;20649;-62
2023/11/23 07:44:20;;;;;;;2.13;0.20;;;11.00;99.90;;;;;;5025628;28;20573;-63
2023/11/23 07:46:47;;;;;;;6.65;0.80;;;10.90;99.90;;;;;;5009835;28;20093;-62
2023/11/23 07:49:14;;;;;;;3.05;0.60;;;10.90;99.90;;;;;;5025142;28;20030;-62
2023/11/23 07:51:40;;;;;;;3.38;0.57;;;11.00;99.90;;;;;;5008506;28;20049;-63
2023/11/23 07:54:06;;;;;;;4.13;1.48;;;11.00;99.90;;;;;;5007771;28;20037;-62
2023/11/23 07:56:34;;;;;;;8.95;1.23;;;11.00;99.90;;;;;;5008808;28;20045;-62
2023/11/23 07:59:00;;;;;;;5.43;0.90;;;11.00;99.90;;;;;;5026128;28;20554;-62
2023/11/23 08:01:26;;;;;;;7.00;1.27;;;11.00;99.90;;;;;;5021773;28;20076;-62
2023/11/23 08:03:52;;;;;;;2.67;1.00;;;11.10;99.90;;;;;;5009019;28;20073;-62
2023/11/23 08:06:18;;;;;;;2.10;0.75;;;11.10;99.90;;;;;;5020204;28;20041;-63
2023/11/23 08:08:43;;;;;;;5.22;1.08;;;11.10;99.90;;;;;;5026459;28;20045;-62
2023/11/23 08:11:09;;;;;;;1.75;0.47;;;11.10;99.90;;;;;;5025693;28;20046;-62
2023/11/23 08:13:36;;;;;;;1.35;0.52;;;11.10;99.90;;;;;;5026366;28;20427;-62
2023/11/23 08:16:04;;;;;;;2.03;0.82;;;11.20;99.90;;;;;;5026161;28;20049;-62
2023/11/23 08:18:30;;;;;;;1.77;0.65;;;11.20;99.90;;;;;;5007890;28;20110;-63
2023/11/23 08:20:57;;;;;;;5.28;1.15;;;11.30;99.90;;;;;;5027028;28;20418;-63
2023/11/23 08:23:23;;;;;;;1.65;0.47;;;11.30;99.90;;;;;;5025216;28;20769;-62
2023/11/23 08:25:49;;;;;;;2.25;0.55;;;11.40;99.90;;;;;;5026807;28;20046;-62
2023/11/23 08:28:16;;;;;;;1.38;0.60;;;11.40;99.90;;;;;;5024043;28;20155;-63
2023/11/23 08:30:43;;;;;;;1.45;0.55;;;11.40;99.90;;;;;;5008148;28;20654;-62
2023/11/23 08:33:09;;;;;;;0.90;0.38;;;11.40;99.90;;;;;;5007992;28;20130;-62
2023/11/23 08:35:34;;;;;;;3.75;0.70;;;11.50;99.90;;;;;;5025466;28;20071;-62
2023/11/23 08:38:00;;;;;;;3.45;0.70;;;11.50;99.90;;;;;;5027018;28;20045;-62
2023/11/23 08:40:26;;;;;;;1.33;0.40;;;11.50;99.90;;;;;;5022502;28;20104;-62
2023/11/23 08:42:52;;;;;;;5.03;0.95;;;11.50;99.90;;;;;;5026665;28;20061;-63
2023/11/23 08:45:18;;;;;;;1.95;0.75;;;11.50;99.90;;;;;;5006454;28;20072;-62
2023/11/23 08:47:44;;;;;;;5.95;0.57;;;11.60;99.90;;;;;;5026341;28;20084;-62
2023/11/23 08:50:13;;;;;;;2.58;0.90;;;11.70;99.90;;;;;;5025008;28;20053;-63
2023/11/23 08:52:39;;;;;;;2.17;0.38;;;11.70;99.90;;;;;;5024736;28;20046;-63
2023/11/23 08:55:06;;;;;;;0.20;0.20;;;11.70;99.90;;;;;;5008432;28;20235;-62
2023/11/23 08:57:32;;;;;;;3.13;0.60;;;11.80;99.90;;;;;;5006692;28;20060;-63
2023/11/23 08:59:57;;;;;;;1.45;1.05;;;11.80;99.90;;;;;;5008767;28;20419;-63
2023/11/23 09:02:23;;;;;;;10.27;0.73;;;11.80;99.90;;;;;;5006330;28;20053;-62
2023/11/23 09:04:49;;;;;;;0.55;0.50;;;11.80;99.90;;;;;;5025812;28;20072;-62
2023/11/23 09:07:14;;;;;;;4.22;1.08;;;11.80;99.90;;;;;;5022132;28;20046;-62
2023/11/23 09:09:40;;;;;;;2.15;0.73;;;11.90;99.90;;;;;;5024941;28;20108;-62
2023/11/23 09:12:06;;;;;;;0.73;0.45;;;11.90;99.90;;;;;;4991687;28;20495;-62
2023/11/23 09:14:32;;;;;;;1.33;0.68;;;11.90;99.90;;;;;;5001107;28;20042;-63
2023/11/23 09:16:58;;;;;;;4.15;0.77;;;11.90;99.90;;;;;;5015788;28;20052;-62
2023/11/23 09:19:24;;;;;;;0.88;0.50;;;11.90;99.90;;;;;;5003576;28;20585;-62
2023/11/23 09:21:50;;;;;;;2.53;0.75;;;12.00;99.90;;;;;;5006366;28;20104;-62
2023/11/23 09:24:16;;;;;;;0.60;0.60;;;12.00;99.90;;;;;;5020641;28;20076;-63
2023/11/23 09:26:42;;;;;;;3.03;0.70;;;12.10;99.90;;;;;;5017485;28;20560;-63
2023/11/23 09:29:07;;;;;;;0.30;0.30;;;12.10;99.90;;;;;;4989238;28;20056;-63
2023/11/23 09:31:34;;;;;;;0.90;0.38;;;12.10;99.90;;;;;;5018849;28;20076;-62
2023/11/23 09:34:00;;;;;;;0.45;0.45;;;12.10;99.90;;;;;;5023973;28;20091;-62
2023/11/23 09:36:29;;;;;;;0.85;0.77;;;12.20;99.90;;;;;;5024066;28;20478;-62
2023/11/23 09:38:56;;;;;;;3.08;0.75;;;12.30;99.90;;;;;;5025339;28;20403;-62
2023/11/23 09:41:24;;;;;;;5.05;1.15;;;12.30;99.90;;;;;;5022245;28;20121;-62
2023/11/23 09:43:50;;;;;;;4.13;1.38;;;12.40;99.90;;;;;;5001125;28;20052;-62
2023/11/23 09:46:16;;;;;;;9.60;1.85;;;12.40;99.90;;;;;;5004890;28;20443;-62
2023/11/23 09:48:44;;;;;;;1.58;0.60;;;12.30;99.90;;;;;;5005263;28;20061;-62
2023/11/23 09:51:10;;;;;;;7.03;1.33;;;12.40;99.90;;;;;;5024831;28;20128;-62
2023/11/23 09:53:43;;;;;;;1.73;0.90;;;12.30;99.90;;;;;;5001155;28;20120;-62
2023/11/23 09:56:09;;;;;;;2.65;0.82;;;12.30;99.90;;;;;;5009885;28;20388;-62
2023/11/23 09:58:35;;;;;;;1.45;0.50;;;12.40;99.90;;;;;;5007576;28;20183;-63
2023/11/23 10:01:02;;;;;;;4.10;0.85;;;12.30;99.90;;;;;;5029093;28;20125;-62
2023/11/23 10:03:33;;;;;;;2.85;0.65;;;12.40;99.90;;;;;;5026995;28;20038;-62
2023/11/23 10:06:03;;;;;;;2.92;1.15;;;12.40;99.90;;;;;;5026980;28;20085;-62
2023/11/23 10:08:29;;;;;;;0.93;0.45;;;12.50;99.90;;;;;;5027226;28;20043;-62
2023/11/23 10:15:16;;;;;;;0.68;0.13;;;12.60;99.90;;;;;;4990475;23;20065;-63
2023/11/23 10:17:42;;;;;;;2.83;0.98;;;12.60;99.90;;;;;;5020394;23;20069;-62
2023/11/23 10:20:14;;;;;;;3.92;1.23;;;12.60;99.90;;;;;;5024756;28;20037;-62
2023/11/23 10:22:44;;;;;;;3.45;0.70;;;12.60;99.90;;;;;;5027340;28;20639;-62
2023/11/23 10:25:28;;;;;;;3.40;0.77;;;12.60;99.90;;;;;;5025588;28;20052;-62
2023/11/23 10:27:59;;;;;;;3.42;0.65;;;12.60;99.90;;;;;;5010520;28;20436;-62
2023/11/23 10:30:25;;;;;;;2.63;0.60;;;12.60;99.90;;;;;;5005343;28;20087;-63
2023/11/23 10:32:56;;;;;;;2.90;0.60;;;12.70;99.90;;;;;;5021325;28;20054;-62
2023/11/23 10:35:23;;;;;;;;;;;12.70;99.90;;;;;;5018134;28;20045;-62
2023/11/23 10:37:53;;;;;;;1.73;0.93;;;12.70;99.90;;;;;;5010267;28;19924;-62
2023/11/23 10:40:24;;;;;;;5.45;1.40;;;12.80;99.90;;;;;;5029537;28;20519;-63
2023/11/23 10:42:53;;;;;;;1.27;0.63;;;12.80;99.90;;;;;;5029192;28;20049;-62
2023/11/23 10:45:20;;;;;;;5.27;1.40;;;12.80;99.90;;;;;;5042584;28;20037;-62
2023/11/23 10:47:52;;;;;;;2.75;0.82;;;12.90;99.90;;;;;;5029322;28;20045;-62
2023/11/23 10:50:21;;;;;;;2.92;0.70;;;12.90;99.90;;;;;;5028878;28;20045;-62
2023/11/23 10:52:47;;;;;;;1.88;0.47;;;12.90;99.90;;;;;;5029403;28;20041;-62
2023/11/23 10:55:14;;;;;;;3.55;1.10;;;12.90;99.90;;;;;;5028784;28;20049;-62
2023/11/23 10:57:47;;;;;;;6.65;1.33;;;12.90;99.90;;;;;;5032009;28;20495;-62
2023/11/23 11:00:21;;;;;;;2.65;0.40;;;12.90;99.90;;;;;;5034087;28;20045;-62
2023/11/23 11:02:48;;;;;;;1.70;0.60;;;13.00;99.90;;;;;;5027846;28;20076;-62
2023/11/23 11:05:28;;;;;;;7.07;1.10;;;13.00;99.90;;;;;;5029494;28;20044;-61
2023/11/23 11:08:05;;;;;;;2.17;0.47;;;13.00;99.90;;;;;;4997691;28;20053;-62
2023/11/23 11:10:48;;;;;;;4.78;1.00;;;13.00;99.90;;;;;;5039794;28;20076;-62
2023/11/23 11:13:20;;;;;;;2.03;0.77;;;13.00;99.90;;;;;;5034041;28;20045;-62
2023/11/23 11:15:57;;;;;;;1.52;0.57;;;13.00;99.90;;;;;;5031380;28;20198;-62
2023/11/23 11:18:25;;;;;;;4.57;0.50;;;13.00;99.90;;;;;;5017737;28;20717;-62
2023/11/23 11:21:08;;;;;;;6.43;1.27;;;13.00;99.90;;;;;;5027735;28;20033;-62
2023/11/23 11:23:51;;;;;;;5.20;1.02;;;13.00;99.90;;;;;;5022975;28;20052;-62
2023/11/23 11:26:19;;;;;;;4.30;1.17;;;13.00;99.90;;;;;;5021444;28;20568;-62
2023/11/23 11:29:05;;;;;;;5.72;0.57;;;13.10;99.90;;;;;;5009425;28;20091;-62
2023/11/23 11:31:41;;;;;;;3.17;1.30;;;13.00;99.90;;;;;;5021847;28;20045;-62
2023/11/23 11:34:26;;;;;;;2.05;0.55;;;13.00;99.90;;;;;;5038273;28;20062;-62
2023/11/23 11:36:58;;;;;;;1.10;0.68;;;13.10;99.90;;;;;;5012179;28;20045;-63
2023/11/23 11:39:35;;;;;;;3.22;0.80;;;13.10;99.90;;;;;;5002918;28;20502;-62
2023/11/23 11:42:03;;;;;;;1.42;0.50;;;13.10;99.90;;;;;;5026177;28;20049;-62
2023/11/23 11:44:30;;;;;;;8.88;1.25;;;13.10;99.90;;;;;;5011142;28;20045;-62
2023/11/23 11:47:08;;;;;;;2.28;0.85;;;13.10;99.90;;;;;;5008074;28;20083;-62
2023/11/23 11:49:35;;;;;;;2.33;0.82;;;13.10;99.90;;;;;;5023385;28;20400;-62
2023/11/23 11:52:00;;;;;;;6.97;1.10;;;13.10;99.90;;;;;;4986201;28;20045;-62
2023/11/23 11:54:26;;;;;;;10.85;0.77;;;13.10;99.90;;;;;;5019071;28;20053;-62
2023/11/23 11:56:53;;;;;;;10.15;1.50;;;13.00;99.90;;;;;;5027342;28;20056;-62
2023/11/23 11:59:24;;;;;;;6.88;1.15;;;13.10;99.90;;;;;;5026099;28;20041;-66
2023/11/23 12:01:50;;;;;;;7.13;1.55;;;13.10;99.90;;;;;;5025352;28;20128;-63
2023/11/23 12:04:19;;;;;;;3.97;1.40;;;13.20;99.90;;;;;;5022295;28;20051;-62
2023/11/23 12:06:48;;;;;;;2.90;1.00;;;13.20;99.90;;;;;;5004032;28;20045;-62
2023/11/23 12:09:19;;;;;;;4.88;0.73;;;13.20;99.90;;;;;;5026682;28;20049;-62
2023/11/23 12:11:45;;;;;;;4.75;1.10;;;13.20;99.90;;;;;;5027448;28;20048;-62
2023/11/23 12:14:11;;;;;;;1.73;0.77;;;13.10;99.90;;;;;;5019393;28;20054;-63
2023/11/23 12:16:38;;;;;;;4.57;1.17;;;13.00;99.90;;;;;;5025049;28;20945;-62
2023/11/23 12:19:21;;;;;;;3.28;0.80;;;13.00;99.90;;;;;;5026163;28;20045;-62
2023/11/23 12:21:56;;;;;;;1.50;0.47;;;12.90;99.90;;;;;;5008818;28;20052;-62
2023/11/23 12:24:30;;;;;;;2.00;1.08;;;12.90;99.90;;;;;;5026637;28;20553;-62
2023/11/23 12:26:56;;;;;;;4.63;1.35;;;12.90;99.90;;;;;;5027606;28;20057;-62
2023/11/23 12:29:30;;;;;;;4.85;1.25;;;12.90;99.90;;;;;;5024077;28;20084;-62
2023/11/23 12:31:58;;;;;;;1.38;0.43;;;12.90;99.90;;;;;;4997592;28;20049;-62
2023/11/23 12:34:25;;;;;;;6.43;1.48;;;12.90;99.90;;;;;;5039400;28;20099;-62
2023/11/23 12:36:51;;;;;;;6.07;1.88;;;13.00;99.90;;;;;;5009789;28;20048;-62
2023/11/23 12:39:17;;;;;;;3.22;1.00;;;13.00;99.90;;;;;;5028410;28;20041;-62
2023/11/23 12:41:45;;;;;;;2.72;0.90;;;12.90;99.90;;;;;;5031553;28;20033;-62
2023/11/23 12:44:11;;;;;;;4.00;0.88;;;12.90;99.90;;;;;;5047736;28;20059;-62
2023/11/23 12:46:37;;;;;;;6.28;0.65;;;12.90;99.90;;;;;;5046805;28;20041;-62
2023/11/23 12:49:06;;;;;;;8.23;1.55;;;12.90;99.90;;;;;;5041746;28;20370;-62
2023/11/23 12:51:32;;;;;;;4.75;1.23;;;12.90;99.90;;;;;;5042943;28;20087;-62